Time;durP1;ratioP1;P1;durP2;ratioP2;P2;SDS_P1;SDS_P2;PMS_P1;PMS_P2;Temp;Humidity;BMP_temperature;BMP_pressure;BME280_temperature;BME280_humidity;BME280_pressure;Samples;Min_cycle;Max_cycle;Signal;HPM_P1;HPM_P2
2022/11/07 00:00:14;;;;;;;0.10;0.10;;;10.60;99.90;;;;;;5025162;28;20658;-84
2022/11/07 00:02:41;;;;;;;0.10;0.10;;;;;;;;;;5035796;28;20085;-84
2022/11/07 00:05:10;;;;;;;0.10;0.10;;;10.60;99.90;;;;;;5027791;28;20052;-84
2022/11/07 00:07:37;;;;;;;0.00;0.00;;;;;;;;;;5025408;28;20128;-83
2022/11/07 00:10:05;;;;;;;0.10;0.10;;;10.60;99.90;;;;;;5027324;28;20124;-83
2022/11/07 00:12:35;;;;;;;0.00;0.00;;;;;;;;;;5032429;28;20065;-83
2022/11/07 00:15:04;;;;;;;0.00;0.00;;;10.60;99.90;;;;;;5032969;28;20049;-84
2022/11/07 00:17:31;;;;;;;0.10;0.10;;;;;;;;;;5025912;28;20052;-83
2022/11/07 00:19:58;;;;;;;0.00;0.00;;;;;;;;;;5039020;28;20169;-82
2022/11/07 00:22:26;;;;;;;0.10;0.10;;;10.60;99.90;;;;;;5038473;28;20131;-83
2022/11/07 00:24:54;;;;;;;0.00;0.00;;;;;;;;;;5036169;28;20050;-84
2022/11/07 00:27:21;;;;;;;0.00;0.00;;;;;;;;;;5026632;28;20140;-83
2022/11/07 00:29:48;;;;;;;0.00;0.00;;;;;;;;;;5021251;28;20042;-84
2022/11/07 00:32:15;;;;;;;0.10;0.10;;;;;;;;;;5028824;28;20603;-84
2022/11/07 00:34:42;;;;;;;0.10;0.10;;;;;;;;;;5024063;28;20049;-84
2022/11/07 00:37:10;;;;;;;0.00;0.00;;;;;;;;;;5023348;28;20080;-83
2022/11/07 00:39:38;;;;;;;0.10;0.10;;;10.70;99.90;;;;;;5035595;28;20132;-84
2022/11/07 00:42:05;;;;;;;0.00;0.00;;;10.60;99.90;;;;;;5028494;28;20124;-84
2022/11/07 00:44:32;;;;;;;0.00;0.00;;;;;;;;;;5022141;28;20084;-83
2022/11/07 00:46:59;;;;;;;0.10;0.10;;;;;;;;;;5041962;28;20136;-82
2022/11/07 00:49:26;;;;;;;0.10;0.10;;;;;;;;;;5041958;28;20045;-83
2022/11/07 00:51:53;;;;;;;0.10;0.10;;;;;;;;;;5019097;28;20552;-84
2022/11/07 00:54:20;;;;;;;0.10;0.10;;;10.60;99.90;;;;;;5024517;28;20069;-82
2022/11/07 00:56:49;;;;;;;0.08;0.08;;;10.70;99.90;;;;;;5030511;28;20069;-86
2022/11/07 00:59:16;;;;;;;0.10;0.10;;;;;;;;;;5022576;28;20151;-83
2022/11/07 01:01:43;;;;;;;0.00;0.00;;;;;;;;;;5046200;28;20458;-82
2022/11/07 01:06:58;;;;;;;0.03;0.03;;;10.70;99.90;;;;;;5036842;28;20057;-82
2022/11/07 01:09:25;;;;;;;0.00;0.00;;;;;;;;;;5038629;28;20470;-82
2022/11/07 01:11:54;;;;;;;0.10;0.10;;;10.80;99.90;;;;;;5028706;28;20080;-85
2022/11/07 01:14:21;;;;;;;0.10;0.10;;;10.80;99.90;;;;;;5040934;28;20105;-85
2022/11/07 01:16:49;;;;;;;0.10;0.10;;;;;;;;;;5037900;28;20132;-83
2022/11/07 01:19:17;;;;;;;0.10;0.10;;;10.80;99.90;;;;;;5026271;28;20558;-83
2022/11/07 01:21:44;;;;;;;0.00;0.00;;;;;;;;;;5038977;28;20113;-82
2022/11/07 01:24:12;;;;;;;0.08;0.08;;;10.80;99.90;;;;;;5024127;28;20036;-84
2022/11/07 01:26:40;;;;;;;0.00;0.00;;;10.80;99.90;;;;;;5039527;28;20105;-85
2022/11/07 01:29:09;;;;;;;0.00;0.00;;;10.90;99.90;;;;;;5027797;28;20519;-85
2022/11/07 01:31:36;;;;;;;0.00;0.00;;;;;;;;;;5033611;28;20045;-82
2022/11/07 01:34:03;;;;;;;0.10;0.10;;;;;;;;;;5035746;28;20069;-83
2022/11/07 01:36:30;;;;;;;0.10;0.10;;;;;;;;;;5022789;28;20049;-83
2022/11/07 01:38:58;;;;;;;0.10;0.10;;;;;;;;;;5038539;28;20108;-85
2022/11/07 01:41:27;;;;;;;0.05;0.05;;;10.90;99.90;;;;;;5023221;28;20087;-86
2022/11/07 01:43:57;;;;;;;0.10;0.10;;;10.90;99.90;;;;;;5041575;28;20144;-84
2022/11/07 01:46:29;;;;;;;0.00;0.00;;;11.00;99.90;;;;;;5023279;28;20094;-84
2022/11/07 01:49:00;;;;;;;0.10;0.10;;;11.00;99.90;;;;;;5020871;28;21454;-83
2022/11/07 01:51:30;;;;;;;0.00;0.00;;;11.00;99.90;;;;;;5029240;28;20081;-83
2022/11/07 01:53:57;;;;;;;0.00;0.00;;;11.00;99.90;;;;;;5025236;28;20054;-84
2022/11/07 01:56:26;;;;;;;0.10;0.10;;;10.90;99.90;;;;;;5025508;28;20479;-84
2022/11/07 01:58:54;;;;;;;0.00;0.00;;;;;;;;;;5023219;28;20045;-83
2022/11/07 02:01:21;;;;;;;0.00;0.00;;;;;;;;;;5022675;28;20145;-84
2022/11/07 02:03:52;;;;;;;0.00;0.00;;;10.90;99.90;;;;;;5037026;28;20076;-84
2022/11/07 02:06:24;;;;;;;0.00;0.00;;;10.60;99.90;;;;;;5030187;28;20110;-82
2022/11/07 02:08:52;;;;;;;0.00;0.00;;;12.20;99.90;;;;;;5036373;28;20065;-84
2022/11/07 02:11:20;;;;;;;0.00;0.00;;;11.00;99.90;;;;;;5022092;28;20052;-82
2022/11/07 02:13:47;;;;;;;0.10;0.10;;;;;;;;;;5023828;28;20080;-84
2022/11/07 02:16:15;;;;;;;0.00;0.00;;;11.00;99.90;;;;;;5027669;28;20101;-83
2022/11/07 02:18:43;;;;;;;0.10;0.10;;;11.00;99.90;;;;;;5039343;28;20470;-83
2022/11/07 02:21:19;;;;;;;0.10;0.10;;;11.50;99.90;;;;;;5040030;28;20057;-83
2022/11/07 02:23:50;;;;;;;0.10;0.10;;;11.00;99.90;;;;;;5041829;28;20061;-82
2022/11/07 02:26:19;;;;;;;0.05;0.05;;;11.00;99.90;;;;;;5021628;28;20076;-85
2022/11/07 02:28:47;;;;;;;0.10;0.10;;;11.00;99.90;;;;;;5040352;28;20038;-82
2022/11/07 02:31:15;;;;;;;0.10;0.10;;;;;;;;;;5025560;28;20053;-84
2022/11/07 02:33:41;;;;;;;0.00;0.00;;;11.00;99.90;;;;;;5027675;28;20056;-84
2022/11/07 02:36:14;;;;;;;0.00;0.00;;;11.10;99.90;;;;;;5037418;28;20073;-82
2022/11/07 02:38:41;;;;;;;0.00;0.00;;;;;;;;;;5038209;28;20061;-83
2022/11/07 02:41:14;;;;;;;0.10;0.10;;;11.00;99.90;;;;;;5036605;28;20045;-83
2022/11/07 02:43:48;;;;;;;0.00;0.00;;;11.00;99.90;;;;;;5039881;28;20069;-82
2022/11/07 02:46:15;;;;;;;0.00;0.00;;;;;;;;;;5025388;28;20084;-84
2022/11/07 02:48:44;;;;;;;0.00;0.00;;;11.00;99.90;;;;;;5042467;28;20069;-82
2022/11/07 02:51:11;;;;;;;0.07;0.07;;;11.00;99.90;;;;;;5023957;28;20076;-83
2022/11/07 02:53:39;;;;;;;0.10;0.10;;;;;;;;;;5044358;28;20057;-84
2022/11/07 02:56:07;;;;;;;0.00;0.00;;;11.00;99.90;;;;;;5025437;28;20053;-84
2022/11/07 02:58:35;;;;;;;0.00;0.00;;;;;;;;;;5036798;28;20113;-83
2022/11/07 03:01:06;;;;;;;0.00;0.00;;;11.00;99.90;;;;;;5042118;28;20072;-85
2022/11/07 03:03:34;;;;;;;0.00;0.00;;;11.00;99.90;;;;;;5026406;28;20069;-83
2022/11/07 03:06:01;;;;;;;0.10;0.10;;;13.30;99.90;;;;;;5026667;28;20126;-83
2022/11/07 03:08:28;;;;;;;0.00;0.00;;;;;;;;;;5033864;28;20412;-82
2022/11/07 03:10:55;;;;;;;0.03;0.03;;;;;;;;;;5039257;28;20102;-83
2022/11/07 03:13:23;;;;;;;0.00;0.00;;;;;;;;;;5025362;28;20045;-84
2022/11/07 03:15:50;;;;;;;0.00;0.00;;;;;;;;;;5041284;28;20108;-83
2022/11/07 03:18:18;;;;;;;0.00;0.00;;;10.80;99.90;;;;;;5023066;28;20026;-84
2022/11/07 03:20:45;;;;;;;0.00;0.00;;;;;;;;;;5032575;28;20049;-84
2022/11/07 03:23:13;;;;;;;0.00;0.00;;;;;;;;;;5027450;28;20051;-82
2022/11/07 03:25:41;;;;;;;0.10;0.10;;;;;;;;;;5026253;28;20075;-83
2022/11/07 03:28:08;;;;;;;0.00;0.00;;;;;;;;;;5035998;28;20053;-83
2022/11/07 03:30:35;;;;;;;0.00;0.00;;;;;;;;;;5045514;28;20077;-83
2022/11/07 03:33:02;;;;;;;0.00;0.00;;;;;;;;;;5026176;28;20109;-83
2022/11/07 03:35:31;;;;;;;0.00;0.00;;;10.70;99.90;;;;;;5023158;28;20053;-83
2022/11/07 03:37:58;;;;;;;0.10;0.10;;;;;;;;;;5038036;28;20061;-83
2022/11/07 03:40:25;;;;;;;0.00;0.00;;;;;;;;;;5030202;28;20046;-83
2022/11/07 03:42:52;;;;;;;0.00;0.00;;;;;;;;;;5027159;28;20049;-83
2022/11/07 03:45:19;;;;;;;0.00;0.00;;;;;;;;;;5041496;28;20155;-83
2022/11/07 03:47:47;;;;;;;0.10;0.10;;;10.70;99.90;;;;;;5022285;28;20201;-83
2022/11/07 03:50:15;;;;;;;0.00;0.00;;;10.80;99.90;;;;;;5023449;28;20050;-83
2022/11/07 03:52:44;;;;;;;0.00;0.00;;;12.70;99.90;;;;;;5026486;28;20558;-83
2022/11/07 03:55:14;;;;;;;0.00;0.00;;;13.20;99.90;;;;;;5036425;28;20240;-84
2022/11/07 03:57:41;;;;;;;0.08;0.08;;;;;;;;;;5027401;28;20053;-84
2022/11/07 04:00:10;;;;;;;0.00;0.00;;;10.90;99.90;;;;;;5039928;28;20124;-83
2022/11/07 04:02:38;;;;;;;0.05;0.05;;;;;;;;;;5039885;28;20244;-85
2022/11/07 04:05:06;;;;;;;0.00;0.00;;;10.90;99.90;;;;;;5044681;28;20049;-85
2022/11/07 04:07:32;;;;;;;0.00;0.00;;;10.90;99.90;;;;;;5035413;28;20095;-83
2022/11/07 04:10:01;;;;;;;0.05;0.05;;;10.90;99.90;;;;;;5037590;28;20057;-84
2022/11/07 04:17:59;;;;;;;0.10;0.10;;;;;;;;;;5037070;28;20074;-85
2022/11/07 04:20:27;;;;;;;0.10;0.10;;;;;;;;;;5022673;28;20042;-85
2022/11/07 04:22:54;;;;;;;0.10;0.10;;;;;;;;;;5017726;28;20058;-84
2022/11/07 04:27:41;;;;;;;0.05;0.05;;;11.00;99.90;;;;;;5048489;28;20132;-84
2022/11/07 04:28:09;;;;;;;0.10;0.10;;;;;;;;;;5037032;28;20053;-84
2022/11/07 04:30:37;;;;;;;0.10;0.10;;;;;;;;;;5022145;28;20128;-82
2022/11/07 04:33:04;;;;;;;0.00;0.00;;;;;;;;;;5022514;28;20092;-85
2022/11/07 04:35:32;;;;;;;0.00;0.00;;;11.00;99.90;;;;;;5037996;28;20068;-84
2022/11/07 04:37:59;;;;;;;0.00;0.00;;;;;;;;;;5034569;28;20061;-83
2022/11/07 04:40:28;;;;;;;0.00;0.00;;;11.00;99.90;;;;;;5039421;28;20053;-86
2022/11/07 04:42:56;;;;;;;0.00;0.00;;;;;;;;;;5045474;28;20042;-84
2022/11/07 04:45:23;;;;;;;0.00;0.00;;;;;;;;;;5021315;28;20072;-84
2022/11/07 04:47:50;;;;;;;0.00;0.00;;;;;;;;;;5025111;28;20065;-84
2022/11/07 04:50:18;;;;;;;0.00;0.00;;;11.00;99.90;;;;;;5041232;28;20050;-84
2022/11/07 04:52:46;;;;;;;0.00;0.00;;;;;;;;;;5028167;28;20201;-83
2022/11/07 04:55:19;;;;;;;0.10;0.10;;;11.10;99.90;;;;;;5023720;28;20057;-84
2022/11/07 04:57:48;;;;;;;0.03;0.03;;;11.10;99.90;;;;;;5025455;28;20096;-83
2022/11/07 05:00:15;;;;;;;0.00;0.00;;;11.10;99.90;;;;;;5027833;28;20049;-84
2022/11/07 05:02:43;;;;;;;0.00;0.00;;;;;;;;;;5023646;28;20053;-82
2022/11/07 05:05:10;;;;;;;0.00;0.00;;;;;;;;;;5023240;28;20049;-82
2022/11/07 05:07:37;;;;;;;0.00;0.00;;;;;;;;;;5032609;28;20432;-83
2022/11/07 05:10:06;;;;;;;0.00;0.00;;;11.10;99.90;;;;;;5021769;28;20529;-84
2022/11/07 05:12:38;;;;;;;0.00;0.00;;;;;;;;;;5034290;28;20048;-84
2022/11/07 05:15:07;;;;;;;0.00;0.00;;;11.10;99.90;;;;;;5018494;28;20054;-84
2022/11/07 05:17:34;;;;;;;0.00;0.00;;;;;;;;;;5040247;28;20072;-84
2022/11/07 05:20:01;;;;;;;0.00;0.00;;;;;;;;;;5019561;28;20340;-83
2022/11/07 05:25:21;;;;;;;0.08;0.08;;;11.20;99.90;;;;;;5026294;28;20041;-84
2022/11/07 05:27:49;;;;;;;0.00;0.00;;;;;;;;;;5016102;28;20069;-85
2022/11/07 05:30:17;;;;;;;0.00;0.00;;;11.20;99.90;;;;;;5024652;28;20077;-84
2022/11/07 05:32:44;;;;;;;0.03;0.03;;;;;;;;;;5036390;28;20053;-85
2022/11/07 05:35:11;;;;;;;0.10;0.00;;;;;;;;;;5018839;28;20136;-84
2022/11/07 05:37:38;;;;;;;0.10;0.10;;;;;;;;;;5027538;28;20100;-83
2022/11/07 05:40:07;;;;;;;0.00;0.00;;;11.10;99.90;;;;;;5024983;28;20049;-84
2022/11/07 05:42:34;;;;;;;0.00;0.00;;;;;;;;;;5029503;28;20073;-83
2022/11/07 05:45:01;;;;;;;0.10;0.10;;;;;;;;;;5031095;28;20124;-83
2022/11/07 05:47:29;;;;;;;0.08;0.08;;;11.10;99.90;;;;;;5012125;28;20063;-85
2022/11/07 05:49:56;;;;;;;0.10;0.10;;;;;;;;;;5021501;28;20052;-84
2022/11/07 05:52:23;;;;;;;0.10;0.10;;;;;;;;;;5035901;28;20069;-83
2022/11/07 05:54:51;;;;;;;0.10;0.10;;;;;;;;;;5036505;28;20038;-83
2022/11/07 05:57:18;;;;;;;0.00;0.00;;;;;;;;;;5030500;28;20066;-84
2022/11/07 05:59:45;;;;;;;0.10;0.10;;;;;;;;;;5031627;28;20134;-84
2022/11/07 06:02:12;;;;;;;0.10;0.10;;;;;;;;;;5043970;28;20140;-84
2022/11/07 06:04:41;;;;;;;0.03;0.03;;;11.20;99.90;;;;;;5019342;28;20052;-84
2022/11/07 06:07:08;;;;;;;0.00;0.00;;;;;;;;;;5037880;28;20050;-85
2022/11/07 06:09:35;;;;;;;0.00;0.00;;;;;;;;;;5023390;28;20109;-85
2022/11/07 06:12:02;;;;;;;0.00;0.00;;;;;;;;;;5036265;28;20108;-83
2022/11/07 06:14:30;;;;;;;0.08;0.08;;;;;;;;;;5041274;28;20065;-85
2022/11/07 06:16:57;;;;;;;0.10;0.10;;;;;;;;;;5039926;28;20510;-85
2022/11/07 06:19:24;;;;;;;0.10;0.10;;;;;;;;;;5036126;28;20042;-84
2022/11/07 06:21:52;;;;;;;0.00;0.00;;;11.30;99.90;;;;;;5036674;28;20038;-85
2022/11/07 06:24:19;;;;;;;0.00;0.00;;;;;;;;;;5029709;28;20050;-84
2022/11/07 06:26:46;;;;;;;0.00;0.00;;;;;;;;;;5025224;28;20132;-84
2022/11/07 06:29:14;;;;;;;0.00;0.00;;;;;;;;;;5039268;28;20076;-84
2022/11/07 06:31:41;;;;;;;0.10;0.10;;;11.40;99.90;;;;;;5037203;28;20054;-85
2022/11/07 06:34:08;;;;;;;0.10;0.10;;;;;;;;;;5019463;28;20050;-83
2022/11/07 06:36:35;;;;;;;0.00;0.00;;;;;;;;;;5037822;28;20075;-83
2022/11/07 06:39:03;;;;;;;0.00;0.00;;;11.30;99.90;;;;;;5038647;28;20120;-82
2022/11/07 06:41:30;;;;;;;0.00;0.00;;;11.80;99.90;;;;;;5025990;28;20061;-82
2022/11/07 06:43:57;;;;;;;0.00;0.00;;;;;;;;;;5039425;28;20045;-82
2022/11/07 06:46:24;;;;;;;0.00;0.00;;;;;;;;;;5039017;28;20053;-83
2022/11/07 06:48:53;;;;;;;0.00;0.00;;;;;;;;;;5026911;28;20575;-84
2022/11/07 06:51:20;;;;;;;0.00;0.00;;;;;;;;;;5026793;28;20080;-83
2022/11/07 06:53:47;;;;;;;0.00;0.00;;;11.30;99.90;;;;;;5043634;28;20048;-83
2022/11/07 06:56:15;;;;;;;0.00;0.00;;;11.30;99.90;;;;;;5038098;28;20129;-84
2022/11/07 06:58:42;;;;;;;0.00;0.00;;;;;;;;;;5029715;28;20078;-84
2022/11/07 07:01:12;;;;;;;0.00;0.00;;;11.30;99.90;;;;;;5034321;28;20041;-84
2022/11/07 07:03:39;;;;;;;;;;;11.30;99.90;;;;;;5044456;28;20118;-85
2022/11/07 07:06:10;;;;;;;0.00;0.00;;;11.40;99.90;;;;;;5026951;28;19959;-84
2022/11/07 07:08:37;;;;;;;0.10;0.10;;;;;;;;;;5026247;28;20136;-83
2022/11/07 07:11:06;;;;;;;0.03;0.03;;;11.40;99.90;;;;;;5031308;28;20124;-83
2022/11/07 07:13:35;;;;;;;0.00;0.00;;;11.40;99.90;;;;;;5047834;28;20045;-84
2022/11/07 07:16:02;;;;;;;0.00;0.00;;;;;;;;;;5042529;28;20078;-83
2022/11/07 07:18:30;;;;;;;0.00;0.00;;;;;;;;;;5044702;28;20064;-84
2022/11/07 07:21:03;;;;;;;0.00;0.00;;;11.30;99.90;;;;;;5047962;28;20045;-83
2022/11/07 07:23:32;;;;;;;0.00;0.00;;;;;;;;;;5033580;28;20132;-83
2022/11/07 07:25:59;;;;;;;0.00;0.00;;;;;;;;;;5048288;28;20053;-83
2022/11/07 07:28:26;;;;;;;0.00;0.00;;;;;;;;;;5030364;28;20045;-84
2022/11/07 07:31:07;;;;;;;0.00;0.00;;;11.40;99.90;;;;;;5026455;28;20096;-82
2022/11/07 07:33:34;;;;;;;0.00;0.00;;;11.40;99.90;;;;;;5041927;28;20058;-83
2022/11/07 07:36:02;;;;;;;0.00;0.00;;;11.40;99.90;;;;;;5042062;28;20076;-83
2022/11/07 07:38:29;;;;;;;0.10;0.10;;;;;;;;;;5043295;28;20554;-82
2022/11/07 07:40:57;;;;;;;0.00;0.00;;;;;;;;;;5028282;28;20139;-85
2022/11/07 07:43:24;;;;;;;0.00;0.00;;;;;;;;;;5036707;28;20121;-85
2022/11/07 07:45:51;;;;;;;0.00;0.00;;;11.40;99.90;;;;;;5023128;28;20101;-85
2022/11/07 07:48:20;;;;;;;0.03;0.03;;;11.40;99.90;;;;;;5045289;28;20041;-84
2022/11/07 07:50:48;;;;;;;0.00;0.00;;;11.40;99.90;;;;;;5044719;28;20136;-84
2022/11/07 07:53:15;;;;;;;0.00;0.00;;;;;;;;;;5029338;28;20042;-84
2022/11/07 07:55:43;;;;;;;0.00;0.00;;;;;;;;;;5041775;28;20057;-83
2022/11/07 07:58:10;;;;;;;0.00;0.00;;;11.40;99.90;;;;;;5027643;28;20076;-84
2022/11/07 08:00:38;;;;;;;0.00;0.00;;;12.70;99.90;;;;;;5047345;28;20073;-84
2022/11/07 08:03:07;;;;;;;0.00;0.00;;;11.60;99.90;;;;;;5042219;28;20349;-83
2022/11/07 08:05:36;;;;;;;0.00;0.00;;;13.20;99.90;;;;;;5038357;28;20049;-84
2022/11/07 08:08:05;;;;;;;0.00;0.00;;;11.60;99.90;;;;;;5021823;28;20092;-83
2022/11/07 08:10:32;;;;;;;0.00;0.00;;;;;;;;;;5029657;28;20073;-83
2022/11/07 08:13:09;;;;;;;0.00;0.00;;;;;;;;;;5045565;28;20077;-82
2022/11/07 08:15:36;;;;;;;0.00;0.00;;;11.80;99.90;;;;;;5032832;28;20042;-85
2022/11/07 08:18:03;;;;;;;0.00;0.00;;;11.80;99.90;;;;;;5026316;28;20049;-85
2022/11/07 08:20:31;;;;;;;0.00;0.00;;;;;;;;;;5043685;28;20057;-84
2022/11/07 08:23:04;;;;;;;0.00;0.00;;;11.80;99.90;;;;;;5030260;28;20068;-84
2022/11/07 08:25:34;;;;;;;0.00;0.00;;;;;;;;;;5043387;28;20056;-82
2022/11/07 08:28:01;;;;;;;0.00;0.00;;;;;;;;;;5021206;28;20073;-84
2022/11/07 08:30:30;;;;;;;0.00;0.00;;;;;;;;;;5038223;28;20112;-85
2022/11/07 08:32:59;;;;;;;0.00;0.00;;;12.00;99.90;;;;;;5028117;28;20045;-85
2022/11/07 08:35:26;;;;;;;0.00;0.00;;;11.90;99.90;;;;;;5037694;28;20053;-85
2022/11/07 08:37:53;;;;;;;0.00;0.00;;;;;;;;;;5023518;28;20045;-83
2022/11/07 08:40:21;;;;;;;0.00;0.00;;;12.10;99.90;;;;;;5028412;28;20143;-85
2022/11/07 08:42:49;;;;;;;0.00;0.00;;;;;;;;;;5026777;28;20049;-83
2022/11/07 08:45:17;;;;;;;0.00;0.00;;;12.20;99.90;;;;;;5025947;28;20064;-82
2022/11/07 08:47:44;;;;;;;0.00;0.00;;;;;;;;;;5036201;28;20046;-82
2022/11/07 08:50:11;;;;;;;0.00;0.00;;;;;;;;;;5039764;28;20053;-81
2022/11/07 08:52:38;;;;;;;0.00;0.00;;;;;;;;;;5032922;28;20038;-83
2022/11/07 08:55:06;;;;;;;0.00;0.00;;;12.30;99.90;;;;;;5036163;28;20046;-84
2022/11/07 08:57:34;;;;;;;0.00;0.00;;;12.30;99.90;;;;;;5015969;28;20065;-84
2022/11/07 09:00:02;;;;;;;0.00;0.00;;;12.30;99.90;;;;;;5027500;28;20050;-84
2022/11/07 09:02:29;;;;;;;0.00;0.00;;;12.30;99.90;;;;;;5031944;28;20117;-83
2022/11/07 09:05:16;;;;;;;0.00;0.00;;;12.40;99.90;;;;;;5039087;28;20245;-83
2022/11/07 09:31:50;;;;;;;0.00;0.00;;;12.70;99.90;;;;;;5026188;28;20077;-85
2022/11/07 09:34:17;;;;;;;0.00;0.00;;;12.70;99.90;;;;;;5006097;28;20367;-86
2022/11/07 09:36:44;;;;;;;0.00;0.00;;;;;;;;;;5007935;28;20053;-87
2022/11/07 09:39:11;;;;;;;0.00;0.00;;;;;;;;;;4986285;28;20077;-87
2022/11/07 09:41:50;;;;;;;0.00;0.00;;;12.90;99.90;;;;;;4992017;28;20151;-86
2022/11/07 09:44:38;;;;;;;0.00;0.00;;;12.90;99.90;;;;;;5065042;23;20555;-85
2022/11/07 09:47:17;;;;;;;0.00;0.00;;;13.00;99.90;;;;;;5056306;28;20105;-83
2022/11/07 09:49:45;;;;;;;;;;;13.00;99.90;;;;;;5057362;28;20102;-84
2022/11/07 09:52:18;;;;;;;0.00;0.00;;;13.10;99.90;;;;;;5054315;28;19956;-85
2022/11/07 09:54:49;;;;;;;0.00;0.00;;;13.10;99.90;;;;;;5053005;28;20048;-85
2022/11/07 09:57:18;;;;;;;0.00;0.00;;;13.20;99.90;;;;;;5067596;28;20049;-82
2022/11/07 09:59:50;;;;;;;0.00;0.00;;;13.20;99.90;;;;;;5059057;28;20037;-85
2022/11/07 10:02:21;;;;;;;0.00;0.00;;;13.30;99.90;;;;;;5061244;28;20045;-84
2022/11/07 10:04:54;;;;;;;0.00;0.00;;;13.30;99.90;;;;;;5061733;28;20383;-85
2022/11/07 10:07:29;;;;;;;0.00;0.00;;;13.40;99.90;;;;;;5051600;28;20037;-84
2022/11/07 10:10:02;;;;;;;0.00;0.00;;;13.50;99.90;;;;;;5062298;28;20060;-83
2022/11/07 10:12:58;;;;;;;0.00;0.00;;;13.40;99.90;;;;;;5050924;28;20048;-84
2022/11/07 10:15:42;;;;;;;0.00;0.00;;;13.60;99.90;;;;;;5059450;28;20085;-86
2022/11/07 10:18:18;;;;;;;0.00;0.00;;;13.60;99.90;;;;;;5056479;28;20579;-85
2022/11/07 10:20:54;;;;;;;0.10;0.10;;;13.60;99.90;;;;;;5062518;28;20079;-85
2022/11/07 10:23:56;;;;;;;0.00;0.00;;;13.70;99.90;;;;;;5076698;28;20068;-85
2022/11/07 10:26:26;;;;;;;0.00;0.00;;;13.70;99.90;;;;;;5055508;28;20271;-83
2022/11/07 10:28:55;;;;;;;;;;;15.40;99.90;;;;;;5061973;28;20430;-84
2022/11/07 10:31:26;;;;;;;0.00;0.00;;;13.70;99.90;;;;;;5061735;28;19928;-84
2022/11/07 10:33:58;;;;;;;0.00;0.00;;;13.70;99.90;;;;;;5073294;28;20053;-83
2022/11/07 10:36:27;;;;;;;0.00;0.00;;;13.70;99.90;;;;;;5080663;28;20049;-83
2022/11/07 10:38:55;;;;;;;0.00;0.00;;;;;;;;;;5066613;28;20078;-85
2022/11/07 10:41:23;;;;;;;0.00;0.00;;;13.70;99.90;;;;;;5061236;28;20124;-83
2022/11/07 10:43:55;;;;;;;0.00;0.00;;;13.70;99.90;;;;;;5063149;28;20059;-85
2022/11/07 10:46:26;;;;;;;0.00;0.00;;;15.00;99.90;;;;;;5078877;28;20049;-83
2022/11/07 10:48:56;;;;;;;0.00;0.00;;;13.70;99.90;;;;;;5061376;28;20068;-85
2022/11/07 10:51:34;;;;;;;0.00;0.00;;;13.70;99.90;;;;;;5058843;28;20045;-85
2022/11/07 10:54:01;;;;;;;0.00;0.00;;;;;;;;;;5062057;28;20052;-84
2022/11/07 10:56:28;;;;;;;0.00;0.00;;;;;;;;;;5067174;28;20052;-84
2022/11/07 10:58:56;;;;;;;0.00;0.00;;;;;;;;;;5083274;28;20037;-83
2022/11/07 11:01:24;;;;;;;0.00;0.00;;;13.70;99.90;;;;;;5063349;28;20056;-83
2022/11/07 11:03:53;;;;;;;0.00;0.00;;;13.70;99.90;;;;;;5057868;28;20100;-83
2022/11/07 11:06:26;;;;;;;0.00;0.00;;;13.80;99.90;;;;;;5080732;28;20095;-83
2022/11/07 11:08:53;;;;;;;0.08;0.08;;;;;;;;;;5065549;28;20040;-83
2022/11/07 11:11:27;;;;;;;0.00;0.00;;;13.80;99.90;;;;;;5084208;28;20059;-85
2022/11/07 11:14:09;;;;;;;0.00;0.00;;;15.30;99.90;;;;;;5062614;28;20053;-84
2022/11/07 11:16:38;;;;;;;0.00;0.00;;;15.00;99.90;;;;;;5063263;28;20079;-84
2022/11/07 11:19:19;;;;;;;0.00;0.00;;;14.00;99.90;;;;;;5081294;28;20509;-84
2022/11/07 11:21:49;;;;;;;0.00;0.00;;;14.00;99.90;;;;;;5076748;28;20041;-84
2022/11/07 11:24:34;;;;;;;0.00;0.00;;;14.00;99.90;;;;;;5083757;28;20447;-83
2022/11/07 11:27:08;;;;;;;0.00;0.00;;;14.10;99.90;;;;;;5065399;28;20079;-83
2022/11/07 11:29:40;;;;;;;0.00;0.00;;;14.80;99.90;;;;;;5068719;28;20117;-85
2022/11/07 11:32:20;;;;;;;0.00;0.00;;;14.20;99.90;;;;;;5059927;28;20075;-84
2022/11/07 11:35:03;;;;;;;0.00;0.00;;;14.20;99.90;;;;;;5064953;28;20094;-84
2022/11/07 11:37:32;;;;;;;0.00;0.00;;;14.30;99.90;;;;;;5057245;28;20056;-83
2022/11/07 11:40:10;;;;;;;0.00;0.00;;;14.90;99.90;;;;;;5054607;28;20052;-84
2022/11/07 11:42:47;;;;;;;0.00;0.00;;;14.30;99.90;;;;;;5052436;28;21123;-81
2022/11/07 11:45:18;;;;;;;0.00;0.00;;;14.30;99.90;;;;;;5049400;28;20116;-83
2022/11/07 11:47:53;;;;;;;0.10;0.10;;;14.20;99.90;;;;;;5057718;28;20136;-84
2022/11/07 11:50:30;;;;;;;0.00;0.00;;;14.20;99.90;;;;;;5058949;28;20064;-84
2022/11/07 11:52:59;;;;;;;0.10;0.10;;;14.20;99.90;;;;;;5068194;28;20063;-83
2022/11/07 11:55:34;;;;;;;0.00;0.00;;;14.20;99.90;;;;;;5051785;28;20308;-83
2022/11/07 11:58:11;;;;;;;0.00;0.00;;;14.20;99.90;;;;;;5070263;28;20057;-85
2022/11/07 12:00:46;;;;;;;0.10;0.10;;;14.30;99.90;;;;;;5061270;28;20052;-85
2022/11/07 12:03:33;;;;;;;0.00;0.00;;;14.30;99.90;;;;;;5060514;28;20418;-83
2022/11/07 12:06:20;;;;;;;0.00;0.00;;;16.30;99.90;;;;;;5057446;28;20056;-84
2022/11/07 12:09:10;;;;;;;0.00;0.00;;;14.30;99.90;;;;;;5061119;28;20064;-84
2022/11/07 12:11:58;;;;;;;0.00;0.00;;;14.30;99.90;;;;;;5077361;28;20040;-83
2022/11/07 12:14:41;;;;;;;0.00;0.00;;;14.30;99.90;;;;;;5054220;28;20056;-83
2022/11/07 12:17:11;;;;;;;0.00;0.00;;;15.30;99.90;;;;;;5063191;28;20048;-85
2022/11/07 12:19:45;;;;;;;0.00;0.00;;;14.20;99.90;;;;;;5074253;28;20102;-84
2022/11/07 12:22:21;;;;;;;0.00;0.00;;;14.20;99.90;;;;;;5059102;28;20068;-83
2022/11/07 12:25:07;;;;;;;0.00;0.00;;;14.30;99.90;;;;;;5057753;28;20083;-85
2022/11/07 12:27:40;;;;;;;0.00;0.00;;;14.10;99.90;;;;;;5057383;28;20049;-83
2022/11/07 12:30:19;;;;;;;0.00;0.00;;;14.00;99.90;;;;;;5058209;28;20040;-83
2022/11/07 12:32:59;;;;;;;0.00;0.00;;;14.10;99.90;;;;;;5057363;28;20044;-85
2022/11/07 12:35:38;;;;;;;0.00;0.00;;;14.10;99.90;;;;;;5059678;28;20048;-84
2022/11/07 12:38:35;;;;;;;0.00;0.00;;;14.80;99.90;;;;;;5054750;28;20188;-85
2022/11/07 12:41:09;;;;;;;0.00;0.00;;;14.30;99.90;;;;;;5074867;28;20083;-84
2022/11/07 12:43:48;;;;;;;0.00;0.00;;;15.00;99.90;;;;;;5047005;28;20110;-84
2022/11/07 12:46:24;;;;;;;0.00;0.00;;;14.20;99.90;;;;;;5067784;28;20084;-84
2022/11/07 12:49:04;;;;;;;0.00;0.00;;;14.10;99.90;;;;;;5070107;28;20118;-83
2022/11/07 12:51:43;;;;;;;0.00;0.00;;;14.20;99.90;;;;;;5057779;28;20037;-85
2022/11/07 12:54:33;;;;;;;0.00;0.00;;;14.10;99.90;;;;;;5049608;28;20068;-83
2022/11/07 12:57:03;;;;;;;0.00;0.00;;;14.10;99.90;;;;;;5054831;28;20517;-86
2022/11/07 12:59:30;;;;;;;;;;;14.10;99.90;;;;;;5053442;28;20048;-83
2022/11/07 13:02:03;;;;;;;0.00;0.00;;;14.00;99.90;;;;;;5062358;28;19955;-84
2022/11/07 13:04:39;;;;;;;0.00;0.00;;;16.80;99.90;;;;;;5046184;28;20052;-83
2022/11/07 13:07:16;;;;;;;0.00;0.00;;;14.00;99.90;;;;;;5066822;28;20166;-84
2022/11/07 13:09:54;;;;;;;0.00;0.00;;;14.00;99.90;;;;;;5067279;28;20511;-85
2022/11/07 13:12:26;;;;;;;0.00;0.00;;;14.20;99.90;;;;;;5049095;28;20509;-85
2022/11/07 13:14:55;;;;;;;0.00;0.00;;;;;;;;;;5053121;28;20128;-85
2022/11/07 13:17:26;;;;;;;0.00;0.00;;;14.10;99.90;;;;;;5046453;28;20044;-86
2022/11/07 13:20:22;;;;;;;0.00;0.00;;;14.00;99.90;;;;;;5046797;28;20508;-85
2022/11/07 13:22:51;;;;;;;0.10;0.10;;;13.90;99.90;;;;;;5066321;28;20049;-83
2022/11/07 13:25:25;;;;;;;0.00;0.00;;;14.00;99.90;;;;;;5052169;28;20044;-85
2022/11/07 13:28:04;;;;;;;0.00;0.00;;;15.10;99.90;;;;;;5068260;28;20064;-85
2022/11/07 13:30:36;;;;;;;0.00;0.00;;;13.90;99.90;;;;;;5051788;28;20506;-85
2022/11/07 13:33:05;;;;;;;0.00;0.00;;;13.90;99.90;;;;;;5055783;28;20045;-85
2022/11/07 13:35:34;;;;;;;0.00;0.00;;;13.80;99.90;;;;;;5078964;28;20067;-83
2022/11/07 13:38:03;;;;;;;0.00;0.00;;;14.20;99.90;;;;;;5047196;28;20098;-83
2022/11/07 13:40:38;;;;;;;0.00;0.00;;;13.80;99.90;;;;;;5062891;28;20047;-84
2022/11/07 13:43:12;;;;;;;0.00;0.00;;;13.80;99.90;;;;;;5043610;28;20048;-84
2022/11/07 13:45:44;;;;;;;0.00;0.00;;;15.80;99.90;;;;;;5061299;28;20049;-82
2022/11/07 13:48:16;;;;;;;0.00;0.00;;;13.80;99.90;;;;;;5048167;28;20131;-86
2022/11/07 13:50:48;;;;;;;0.00;0.00;;;13.80;99.90;;;;;;5052247;28;20096;-83
2022/11/07 13:53:19;;;;;;;0.00;0.00;;;13.90;99.90;;;;;;5058219;28;20037;-84
2022/11/07 13:56:00;;;;;;;0.00;0.00;;;13.90;99.90;;;;;;5061579;28;20403;-84
2022/11/07 13:58:28;;;;;;;0.00;0.00;;;14.00;99.90;;;;;;5051134;28;20083;-83
2022/11/07 14:01:03;;;;;;;0.00;0.00;;;14.00;99.90;;;;;;5069796;28;20047;-84
2022/11/07 14:03:30;;;;;;;0.00;0.00;;;;;;;;;;5065971;28;20183;-85
2022/11/07 14:05:57;;;;;;;0.00;0.00;;;;;;;;;;5042217;28;20072;-86
2022/11/07 14:08:30;;;;;;;0.00;0.00;;;14.00;99.90;;;;;;5048510;28;20056;-85
2022/11/07 14:10:58;;;;;;;0.00;0.00;;;14.00;99.90;;;;;;5073070;28;20489;-83
2022/11/07 14:13:28;;;;;;;0.00;0.00;;;14.80;99.90;;;;;;5052328;28;20382;-86
2022/11/07 14:15:57;;;;;;;0.00;0.00;;;14.00;99.90;;;;;;5066894;28;20074;-86
2022/11/07 14:18:26;;;;;;;0.00;0.00;;;14.00;99.90;;;;;;5075567;28;20068;-86